sensor_id;sensor_type;location;lat;lon;timestamp;P1;durP1;ratioP1;P2;durP2;ratioP2
51800;SDS011;37855;53.204;6.568;2023-07-31T00:01:06;7.57;;;3.20;;
51800;SDS011;37855;53.204;6.568;2023-07-31T00:03:32;8.27;;;3.60;;
51800;SDS011;37855;53.204;6.568;2023-07-31T00:05:57;5.10;;;2.80;;
51800;SDS011;37855;53.204;6.568;2023-07-31T00:08:23;6.07;;;3.17;;
51800;SDS011;37855;53.204;6.568;2023-07-31T00:10:51;6.40;;;3.37;;
51800;SDS011;37855;53.204;6.568;2023-07-31T00:13:17;6.05;;;3.38;;
51800;SDS011;37855;53.204;6.568;2023-07-31T00:15:43;6.10;;;3.50;;
51800;SDS011;37855;53.204;6.568;2023-07-31T00:18:09;5.70;;;2.80;;
51800;SDS011;37855;53.204;6.568;2023-07-31T00:20:35;5.63;;;2.90;;
51800;SDS011;37855;53.204;6.568;2023-07-31T00:23:00;5.40;;;3.10;;
51800;SDS011;37855;53.204;6.568;2023-07-31T00:25:26;5.65;;;2.75;;
51800;SDS011;37855;53.204;6.568;2023-07-31T00:27:51;6.10;;;2.60;;
51800;SDS011;37855;53.204;6.568;2023-07-31T00:30:17;5.37;;;2.57;;
51800;SDS011;37855;53.204;6.568;2023-07-31T00:32:43;4.80;;;2.40;;
51800;SDS011;37855;53.204;6.568;2023-07-31T00:35:08;4.27;;;2.07;;
51800;SDS011;37855;53.204;6.568;2023-07-31T00:37:34;5.75;;;2.72;;
51800;SDS011;37855;53.204;6.568;2023-07-31T00:40:00;6.70;;;2.70;;
51800;SDS011;37855;53.204;6.568;2023-07-31T00:42:25;5.82;;;2.90;;
51800;SDS011;37855;53.204;6.568;2023-07-31T00:44:51;5.10;;;2.27;;
51800;SDS011;37855;53.204;6.568;2023-07-31T00:47:17;5.53;;;2.60;;
51800;SDS011;37855;53.204;6.568;2023-07-31T00:49:43;5.80;;;2.50;;
51800;SDS011;37855;53.204;6.568;2023-07-31T00:52:09;5.40;;;2.50;;
51800;SDS011;37855;53.204;6.568;2023-07-31T00:54:35;5.28;;;2.42;;
51800;SDS011;37855;53.204;6.568;2023-07-31T00:57:01;4.90;;;2.30;;
51800;SDS011;37855;53.204;6.568;2023-07-31T00:59:27;6.23;;;1.93;;
51800;SDS011;37855;53.204;6.568;2023-07-31T01:01:53;5.72;;;2.60;;
51800;SDS011;37855;53.204;6.568;2023-07-31T01:04:19;4.97;;;2.38;;
51800;SDS011;37855;53.204;6.568;2023-07-31T01:06:52;5.27;;;2.20;;
51800;SDS011;37855;53.204;6.568;2023-07-31T01:10:15;4.93;;;2.38;;
51800;SDS011;37855;53.204;6.568;2023-07-31T01:12:45;6.57;;;2.60;;
51800;SDS011;37855;53.204;6.568;2023-07-31T01:15:13;4.95;;;2.60;;
51800;SDS011;37855;53.204;6.568;2023-07-31T01:17:41;6.70;;;2.58;;
51800;SDS011;37855;53.204;6.568;2023-07-31T01:20:17;6.73;;;2.43;;
51800;SDS011;37855;53.204;6.568;2023-07-31T01:28:20;4.72;;;2.35;;
51800;SDS011;37855;53.204;6.568;2023-07-31T01:30:58;5.45;;;2.60;;
51800;SDS011;37855;53.204;6.568;2023-07-31T01:33:26;4.97;;;2.00;;
51800;SDS011;37855;53.204;6.568;2023-07-31T01:35:53;5.13;;;2.15;;
51800;SDS011;37855;53.204;6.568;2023-07-31T01:38:20;5.32;;;2.40;;
51800;SDS011;37855;53.204;6.568;2023-07-31T01:40:48;5.20;;;2.50;;
51800;SDS011;37855;53.204;6.568;2023-07-31T01:43:16;5.25;;;2.28;;
51800;SDS011;37855;53.204;6.568;2023-07-31T01:45:42;5.17;;;2.37;;
51800;SDS011;37855;53.204;6.568;2023-07-31T01:48:07;4.70;;;2.40;;
51800;SDS011;37855;53.204;6.568;2023-07-31T01:50:33;5.53;;;2.70;;
51800;SDS011;37855;53.204;6.568;2023-07-31T01:52:59;5.57;;;2.50;;
51800;SDS011;37855;53.204;6.568;2023-07-31T01:55:24;5.70;;;2.20;;
51800;SDS011;37855;53.204;6.568;2023-07-31T01:57:50;4.60;;;2.27;;
51800;SDS011;37855;53.204;6.568;2023-07-31T02:00:17;4.05;;;2.13;;
51800;SDS011;37855;53.204;6.568;2023-07-31T02:02:43;3.60;;;1.90;;
51800;SDS011;37855;53.204;6.568;2023-07-31T02:05:09;3.20;;;1.77;;
51800;SDS011;37855;53.204;6.568;2023-07-31T02:07:34;3.38;;;1.70;;
51800;SDS011;37855;53.204;6.568;2023-07-31T02:10:00;3.83;;;1.83;;
51800;SDS011;37855;53.204;6.568;2023-07-31T02:12:26;4.95;;;1.42;;
51800;SDS011;37855;53.204;6.568;2023-07-31T02:14:51;3.50;;;1.63;;
51800;SDS011;37855;53.204;6.568;2023-07-31T02:17:17;3.00;;;1.63;;
51800;SDS011;37855;53.204;6.568;2023-07-31T02:19:43;2.60;;;1.37;;
51800;SDS011;37855;53.204;6.568;2023-07-31T02:22:08;3.33;;;1.70;;
51800;SDS011;37855;53.204;6.568;2023-07-31T02:24:34;2.77;;;1.40;;
51800;SDS011;37855;53.204;6.568;2023-07-31T02:27:00;3.05;;;1.38;;
51800;SDS011;37855;53.204;6.568;2023-07-31T02:29:25;4.17;;;1.30;;
51800;SDS011;37855;53.204;6.568;2023-07-31T02:31:51;2.53;;;1.40;;
51800;SDS011;37855;53.204;6.568;2023-07-31T02:34:17;3.67;;;1.35;;
51800;SDS011;37855;53.204;6.568;2023-07-31T02:36:42;3.33;;;1.40;;
51800;SDS011;37855;53.204;6.568;2023-07-31T02:39:08;3.20;;;1.30;;
51800;SDS011;37855;53.204;6.568;2023-07-31T02:41:33;3.47;;;1.30;;
51800;SDS011;37855;53.204;6.568;2023-07-31T02:43:59;3.67;;;1.30;;
51800;SDS011;37855;53.204;6.568;2023-07-31T02:46:25;1.83;;;1.10;;
51800;SDS011;37855;53.204;6.568;2023-07-31T02:48:50;4.13;;;1.30;;
51800;SDS011;37855;53.204;6.568;2023-07-31T02:51:16;3.22;;;1.25;;
51800;SDS011;37855;53.204;6.568;2023-07-31T02:53:42;5.18;;;1.20;;
51800;SDS011;37855;53.204;6.568;2023-07-31T02:56:08;3.07;;;1.10;;
51800;SDS011;37855;53.204;6.568;2023-07-31T02:58:33;3.30;;;1.38;;
51800;SDS011;37855;53.204;6.568;2023-07-31T03:00:59;3.43;;;1.20;;
51800;SDS011;37855;53.204;6.568;2023-07-31T03:03:25;4.95;;;1.30;;
51800;SDS011;37855;53.204;6.568;2023-07-31T03:05:50;3.43;;;1.23;;
51800;SDS011;37855;53.204;6.568;2023-07-31T03:08:16;3.07;;;1.40;;
51800;SDS011;37855;53.204;6.568;2023-07-31T03:10:41;3.97;;;1.40;;
51800;SDS011;37855;53.204;6.568;2023-07-31T03:13:07;2.97;;;1.30;;
51800;SDS011;37855;53.204;6.568;2023-07-31T03:15:33;2.90;;;1.25;;
51800;SDS011;37855;53.204;6.568;2023-07-31T03:17:58;3.23;;;1.40;;
51800;SDS011;37855;53.204;6.568;2023-07-31T03:20:24;3.75;;;1.58;;
51800;SDS011;37855;53.204;6.568;2023-07-31T03:22:50;4.60;;;1.10;;
51800;SDS011;37855;53.204;6.568;2023-07-31T03:25:15;2.90;;;1.10;;
51800;SDS011;37855;53.204;6.568;2023-07-31T03:27:41;3.25;;;1.20;;
51800;SDS011;37855;53.204;6.568;2023-07-31T03:30:07;2.27;;;1.00;;
51800;SDS011;37855;53.204;6.568;2023-07-31T03:32:33;4.07;;;1.10;;
51800;SDS011;37855;53.204;6.568;2023-07-31T03:34:58;2.63;;;1.20;;
51800;SDS011;37855;53.204;6.568;2023-07-31T03:37:24;4.03;;;1.30;;
51800;SDS011;37855;53.204;6.568;2023-07-31T03:39:49;3.93;;;1.10;;
51800;SDS011;37855;53.204;6.568;2023-07-31T03:42:15;3.38;;;1.30;;
51800;SDS011;37855;53.204;6.568;2023-07-31T03:44:41;2.80;;;1.20;;
51800;SDS011;37855;53.204;6.568;2023-07-31T03:47:06;4.03;;;1.30;;
51800;SDS011;37855;53.204;6.568;2023-07-31T03:49:32;2.30;;;1.10;;
51800;SDS011;37855;53.204;6.568;2023-07-31T03:51:58;3.80;;;1.20;;
51800;SDS011;37855;53.204;6.568;2023-07-31T03:54:24;3.40;;;1.40;;
51800;SDS011;37855;53.204;6.568;2023-07-31T03:56:49;2.83;;;1.27;;
51800;SDS011;37855;53.204;6.568;2023-07-31T03:59:15;2.40;;;1.10;;
51800;SDS011;37855;53.204;6.568;2023-07-31T04:01:41;3.73;;;1.30;;
51800;SDS011;37855;53.204;6.568;2023-07-31T04:04:06;3.00;;;1.30;;
51800;SDS011;37855;53.204;6.568;2023-07-31T04:06:32;2.30;;;1.13;;
51800;SDS011;37855;53.204;6.568;2023-07-31T04:08:58;4.40;;;1.50;;
51800;SDS011;37855;53.204;6.568;2023-07-31T04:11:23;3.50;;;1.63;;
51800;SDS011;37855;53.204;6.568;2023-07-31T04:13:49;2.80;;;1.30;;
51800;SDS011;37855;53.204;6.568;2023-07-31T04:16:15;3.20;;;1.25;;
51800;SDS011;37855;53.204;6.568;2023-07-31T04:18:40;3.53;;;1.60;;
51800;SDS011;37855;53.204;6.568;2023-07-31T04:21:06;3.53;;;1.20;;
51800;SDS011;37855;53.204;6.568;2023-07-31T04:23:32;5.37;;;1.30;;
51800;SDS011;37855;53.204;6.568;2023-07-31T04:25:57;3.60;;;1.43;;
51800;SDS011;37855;53.204;6.568;2023-07-31T04:28:23;4.18;;;1.50;;
51800;SDS011;37855;53.204;6.568;2023-07-31T04:30:50;2.72;;;1.38;;
51800;SDS011;37855;53.204;6.568;2023-07-31T04:33:16;3.63;;;1.30;;
51800;SDS011;37855;53.204;6.568;2023-07-31T04:35:47;2.85;;;1.40;;
51800;SDS011;37855;53.204;6.568;2023-07-31T04:38:17;4.33;;;1.40;;
51800;SDS011;37855;53.204;6.568;2023-07-31T04:40:46;4.35;;;1.38;;
51800;SDS011;37855;53.204;6.568;2023-07-31T04:43:12;3.40;;;1.40;;
51800;SDS011;37855;53.204;6.568;2023-07-31T04:45:38;3.25;;;1.30;;
51800;SDS011;37855;53.204;6.568;2023-07-31T04:48:04;3.43;;;1.20;;
51800;SDS011;37855;53.204;6.568;2023-07-31T04:50:29;3.47;;;1.30;;
51800;SDS011;37855;53.204;6.568;2023-07-31T04:52:55;3.33;;;1.10;;
51800;SDS011;37855;53.204;6.568;2023-07-31T04:55:21;3.20;;;1.20;;
51800;SDS011;37855;53.204;6.568;2023-07-31T04:57:47;2.67;;;1.20;;
51800;SDS011;37855;53.204;6.568;2023-07-31T05:00:13;3.07;;;1.30;;
51800;SDS011;37855;53.204;6.568;2023-07-31T05:02:38;6.07;;;1.83;;
51800;SDS011;37855;53.204;6.568;2023-07-31T05:05:04;3.40;;;1.40;;
51800;SDS011;37855;53.204;6.568;2023-07-31T05:07:30;3.55;;;1.48;;
51800;SDS011;37855;53.204;6.568;2023-07-31T05:09:58;3.65;;;1.30;;
51800;SDS011;37855;53.204;6.568;2023-07-31T05:12:24;4.23;;;1.43;;
51800;SDS011;37855;53.204;6.568;2023-07-31T05:14:51;3.10;;;1.25;;
51800;SDS011;37855;53.204;6.568;2023-07-31T05:17:17;3.17;;;1.33;;
51800;SDS011;37855;53.204;6.568;2023-07-31T05:19:43;5.32;;;1.25;;
51800;SDS011;37855;53.204;6.568;2023-07-31T05:22:08;5.63;;;1.20;;
51800;SDS011;37855;53.204;6.568;2023-07-31T05:24:34;4.15;;;1.52;;
51800;SDS011;37855;53.204;6.568;2023-07-31T05:27:00;5.63;;;1.50;;
51800;SDS011;37855;53.204;6.568;2023-07-31T05:29:25;4.18;;;1.60;;
51800;SDS011;37855;53.204;6.568;2023-07-31T05:31:56;6.43;;;1.40;;
51800;SDS011;37855;53.204;6.568;2023-07-31T05:34:26;3.70;;;1.27;;
51800;SDS011;37855;53.204;6.568;2023-07-31T05:36:51;2.47;;;1.20;;
51800;SDS011;37855;53.204;6.568;2023-07-31T05:39:19;6.18;;;1.40;;
51800;SDS011;37855;53.204;6.568;2023-07-31T05:41:44;3.00;;;1.17;;
51800;SDS011;37855;53.204;6.568;2023-07-31T05:44:10;5.28;;;1.30;;
51800;SDS011;37855;53.204;6.568;2023-07-31T05:46:36;2.80;;;1.10;;
51800;SDS011;37855;53.204;6.568;2023-07-31T05:49:02;5.03;;;1.40;;
51800;SDS011;37855;53.204;6.568;2023-07-31T05:51:28;3.10;;;1.33;;
51800;SDS011;37855;53.204;6.568;2023-07-31T05:53:54;3.10;;;1.10;;
51800;SDS011;37855;53.204;6.568;2023-07-31T05:56:20;2.10;;;1.10;;
51800;SDS011;37855;53.204;6.568;2023-07-31T05:58:46;2.60;;;1.30;;
51800;SDS011;37855;53.204;6.568;2023-07-31T06:01:12;4.22;;;1.40;;
51800;SDS011;37855;53.204;6.568;2023-07-31T06:03:39;2.47;;;1.40;;
51800;SDS011;37855;53.204;6.568;2023-07-31T06:06:05;3.70;;;1.50;;
51800;SDS011;37855;53.204;6.568;2023-07-31T06:08:34;4.78;;;1.50;;
51800;SDS011;37855;53.204;6.568;2023-07-31T06:11:00;3.23;;;1.63;;
51800;SDS011;37855;53.204;6.568;2023-07-31T06:13:27;6.05;;;1.60;;
51800;SDS011;37855;53.204;6.568;2023-07-31T06:15:54;3.70;;;1.50;;
51800;SDS011;37855;53.204;6.568;2023-07-31T06:18:20;3.80;;;1.70;;
51800;SDS011;37855;53.204;6.568;2023-07-31T06:20:45;5.30;;;1.85;;
51800;SDS011;37855;53.204;6.568;2023-07-31T06:23:12;5.13;;;2.03;;
51800;SDS011;37855;53.204;6.568;2023-07-31T06:25:44;6.47;;;2.00;;
51800;SDS011;37855;53.204;6.568;2023-07-31T06:28:09;5.45;;;2.00;;
51800;SDS011;37855;53.204;6.568;2023-07-31T06:30:35;7.30;;;3.00;;
51800;SDS011;37855;53.204;6.568;2023-07-31T06:33:01;8.30;;;2.60;;
51800;SDS011;37855;53.204;6.568;2023-07-31T06:35:28;7.03;;;2.70;;
51800;SDS011;37855;53.204;6.568;2023-07-31T06:37:53;9.43;;;2.77;;
51800;SDS011;37855;53.204;6.568;2023-07-31T06:40:19;11.32;;;3.35;;
51800;SDS011;37855;53.204;6.568;2023-07-31T06:42:45;11.47;;;3.70;;
51800;SDS011;37855;53.204;6.568;2023-07-31T06:45:10;15.57;;;4.47;;
51800;SDS011;37855;53.204;6.568;2023-07-31T06:47:36;16.20;;;4.60;;
51800;SDS011;37855;53.204;6.568;2023-07-31T06:50:02;13.75;;;4.40;;
51800;SDS011;37855;53.204;6.568;2023-07-31T06:52:28;13.27;;;4.40;;
51800;SDS011;37855;53.204;6.568;2023-07-31T06:57:45;17.80;;;4.72;;
51800;SDS011;37855;53.204;6.568;2023-07-31T07:00:14;17.20;;;4.97;;
51800;SDS011;37855;53.204;6.568;2023-07-31T07:02:41;16.25;;;5.20;;
51800;SDS011;37855;53.204;6.568;2023-07-31T07:05:07;15.20;;;4.38;;
51800;SDS011;37855;53.204;6.568;2023-07-31T07:07:33;13.32;;;4.78;;
51800;SDS011;37855;53.204;6.568;2023-07-31T07:09:59;19.27;;;5.10;;
51800;SDS011;37855;53.204;6.568;2023-07-31T07:12:25;19.77;;;4.80;;
51800;SDS011;37855;53.204;6.568;2023-07-31T07:14:54;14.02;;;4.63;;
51800;SDS011;37855;53.204;6.568;2023-07-31T07:17:20;15.45;;;4.72;;
51800;SDS011;37855;53.204;6.568;2023-07-31T07:19:45;19.47;;;5.90;;
51800;SDS011;37855;53.204;6.568;2023-07-31T07:22:13;16.30;;;4.85;;
51800;SDS011;37855;53.204;6.568;2023-07-31T07:24:39;21.35;;;5.10;;
51800;SDS011;37855;53.204;6.568;2023-07-31T07:27:05;21.53;;;5.30;;
51800;SDS011;37855;53.204;6.568;2023-07-31T07:29:31;12.95;;;4.38;;
51800;SDS011;37855;53.204;6.568;2023-07-31T07:31:56;18.80;;;5.18;;
51800;SDS011;37855;53.204;6.568;2023-07-31T07:34:23;17.13;;;5.50;;
51800;SDS011;37855;53.204;6.568;2023-07-31T07:36:51;16.08;;;5.32;;
51800;SDS011;37855;53.204;6.568;2023-07-31T07:39:16;14.63;;;5.33;;
51800;SDS011;37855;53.204;6.568;2023-07-31T07:41:42;16.75;;;5.57;;
51800;SDS011;37855;53.204;6.568;2023-07-31T07:44:08;15.73;;;5.27;;
51800;SDS011;37855;53.204;6.568;2023-07-31T07:46:33;14.10;;;5.03;;
51800;SDS011;37855;53.204;6.568;2023-07-31T07:49:02;11.30;;;4.50;;
51800;SDS011;37855;53.204;6.568;2023-07-31T07:51:28;10.70;;;3.87;;
51800;SDS011;37855;53.204;6.568;2023-07-31T07:53:55;8.38;;;2.83;;
51800;SDS011;37855;53.204;6.568;2023-07-31T07:56:21;8.43;;;3.07;;
51800;SDS011;37855;53.204;6.568;2023-07-31T07:58:48;7.50;;;2.85;;
51800;SDS011;37855;53.204;6.568;2023-07-31T08:01:15;6.68;;;2.17;;
51800;SDS011;37855;53.204;6.568;2023-07-31T08:03:41;4.70;;;1.80;;
51800;SDS011;37855;53.204;6.568;2023-07-31T08:06:06;8.03;;;2.03;;
51800;SDS011;37855;53.204;6.568;2023-07-31T08:08:34;5.28;;;1.70;;
51800;SDS011;37855;53.204;6.568;2023-07-31T08:11:03;3.50;;;1.67;;
51800;SDS011;37855;53.204;6.568;2023-07-31T08:13:29;5.35;;;1.85;;
51800;SDS011;37855;53.204;6.568;2023-07-31T08:15:55;4.20;;;1.67;;
51800;SDS011;37855;53.204;6.568;2023-07-31T08:18:20;3.67;;;1.55;;
51800;SDS011;37855;53.204;6.568;2023-07-31T08:20:46;4.40;;;1.60;;
51800;SDS011;37855;53.204;6.568;2023-07-31T08:23:12;3.93;;;1.70;;
51800;SDS011;37855;53.204;6.568;2023-07-31T08:25:38;5.38;;;1.80;;
51800;SDS011;37855;53.204;6.568;2023-07-31T08:28:04;5.78;;;1.98;;
51800;SDS011;37855;53.204;6.568;2023-07-31T08:30:31;4.60;;;1.80;;
51800;SDS011;37855;53.204;6.568;2023-07-31T08:32:58;5.63;;;1.88;;
51800;SDS011;37855;53.204;6.568;2023-07-31T08:35:25;4.20;;;1.80;;
51800;SDS011;37855;53.204;6.568;2023-07-31T08:37:53;3.92;;;1.33;;
51800;SDS011;37855;53.204;6.568;2023-07-31T08:40:18;4.10;;;1.70;;
51800;SDS011;37855;53.204;6.568;2023-07-31T08:42:48;4.07;;;1.50;;
51800;SDS011;37855;53.204;6.568;2023-07-31T08:45:19;4.65;;;1.73;;
51800;SDS011;37855;53.204;6.568;2023-07-31T08:47:45;4.00;;;1.50;;
51800;SDS011;37855;53.204;6.568;2023-07-31T08:50:13;3.78;;;1.80;;
51800;SDS011;37855;53.204;6.568;2023-07-31T08:52:40;3.87;;;1.53;;
51800;SDS011;37855;53.204;6.568;2023-07-31T08:55:06;4.65;;;1.50;;
51800;SDS011;37855;53.204;6.568;2023-07-31T08:57:34;3.75;;;1.40;;
51800;SDS011;37855;53.204;6.568;2023-07-31T09:00:02;4.32;;;1.30;;
51800;SDS011;37855;53.204;6.568;2023-07-31T09:02:30;2.83;;;1.20;;
51800;SDS011;37855;53.204;6.568;2023-07-31T09:05:01;3.60;;;1.40;;
51800;SDS011;37855;53.204;6.568;2023-07-31T09:07:28;3.80;;;1.60;;
51800;SDS011;37855;53.204;6.568;2023-07-31T09:09:59;4.15;;;1.25;;
51800;SDS011;37855;53.204;6.568;2023-07-31T09:12:25;4.20;;;1.40;;
51800;SDS011;37855;53.204;6.568;2023-07-31T09:14:51;3.40;;;1.20;;
51800;SDS011;37855;53.204;6.568;2023-07-31T09:17:28;3.53;;;1.40;;
51800;SDS011;37855;53.204;6.568;2023-07-31T09:20:17;3.23;;;1.37;;
51800;SDS011;37855;53.204;6.568;2023-07-31T09:22:45;2.50;;;1.40;;
51800;SDS011;37855;53.204;6.568;2023-07-31T09:25:18;3.92;;;1.38;;
51800;SDS011;37855;53.204;6.568;2023-07-31T09:27:57;2.17;;;1.00;;
51800;SDS011;37855;53.204;6.568;2023-07-31T09:30:24;2.67;;;1.30;;
51800;SDS011;37855;53.204;6.568;2023-07-31T09:32:51;2.70;;;1.33;;
51800;SDS011;37855;53.204;6.568;2023-07-31T09:35:28;4.53;;;1.48;;
51800;SDS011;37855;53.204;6.568;2023-07-31T09:37:59;2.70;;;1.38;;
51800;SDS011;37855;53.204;6.568;2023-07-31T09:40:38;4.60;;;1.60;;
51800;SDS011;37855;53.204;6.568;2023-07-31T09:43:08;3.15;;;1.13;;
51800;SDS011;37855;53.204;6.568;2023-07-31T09:45:36;1.87;;;1.00;;
51800;SDS011;37855;53.204;6.568;2023-07-31T09:48:16;2.17;;;1.10;;
51800;SDS011;37855;53.204;6.568;2023-07-31T09:50:47;2.90;;;1.05;;
51800;SDS011;37855;53.204;6.568;2023-07-31T09:53:13;1.88;;;0.90;;
51800;SDS011;37855;53.204;6.568;2023-07-31T09:55:41;2.53;;;1.20;;
51800;SDS011;37855;53.204;6.568;2023-07-31T09:58:11;1.87;;;0.90;;
51800;SDS011;37855;53.204;6.568;2023-07-31T10:00:38;1.92;;;0.90;;
51800;SDS011;37855;53.204;6.568;2023-07-31T10:03:05;2.22;;;0.85;;
51800;SDS011;37855;53.204;6.568;2023-07-31T10:05:39;3.63;;;1.10;;
51800;SDS011;37855;53.204;6.568;2023-07-31T10:08:09;3.47;;;1.05;;
51800;SDS011;37855;53.204;6.568;2023-07-31T10:10:40;2.93;;;1.00;;
51800;SDS011;37855;53.204;6.568;2023-07-31T10:13:09;2.92;;;1.00;;
51800;SDS011;37855;53.204;6.568;2023-07-31T10:15:36;1.73;;;0.73;;
51800;SDS011;37855;53.204;6.568;2023-07-31T10:18:02;2.03;;;0.80;;
51800;SDS011;37855;53.204;6.568;2023-07-31T10:20:30;1.35;;;0.75;;
51800;SDS011;37855;53.204;6.568;2023-07-31T10:22:57;3.40;;;1.00;;
51800;SDS011;37855;53.204;6.568;2023-07-31T10:25:24;3.20;;;1.00;;
51800;SDS011;37855;53.204;6.568;2023-07-31T10:27:52;3.03;;;0.90;;
51800;SDS011;37855;53.204;6.568;2023-07-31T10:30:20;1.58;;;0.80;;
51800;SDS011;37855;53.204;6.568;2023-07-31T10:32:49;2.10;;;0.80;;
51800;SDS011;37855;53.204;6.568;2023-07-31T10:35:18;1.97;;;0.80;;
51800;SDS011;37855;53.204;6.568;2023-07-31T10:37:43;1.73;;;0.90;;
51800;SDS011;37855;53.204;6.568;2023-07-31T10:40:10;2.03;;;0.90;;
51800;SDS011;37855;53.204;6.568;2023-07-31T10:42:54;2.30;;;0.80;;
51800;SDS011;37855;53.204;6.568;2023-07-31T10:45:35;1.87;;;0.70;;
51800;SDS011;37855;53.204;6.568;2023-07-31T10:50:30;1.92;;;0.90;;
51800;SDS011;37855;53.204;6.568;2023-07-31T10:52:58;1.65;;;0.90;;
51800;SDS011;37855;53.204;6.568;2023-07-31T10:55:29;1.65;;;0.90;;
51800;SDS011;37855;53.204;6.568;2023-07-31T10:58:05;2.30;;;0.80;;
51800;SDS011;37855;53.204;6.568;2023-07-31T11:00:40;1.75;;;0.80;;
51800;SDS011;37855;53.204;6.568;2023-07-31T11:03:09;1.77;;;0.90;;
51800;SDS011;37855;53.204;6.568;2023-07-31T11:05:47;2.20;;;1.00;;
51800;SDS011;37855;53.204;6.568;2023-07-31T11:08:26;2.03;;;0.90;;
51800;SDS011;37855;53.204;6.568;2023-07-31T11:11:15;4.10;;;1.00;;
51800;SDS011;37855;53.204;6.568;2023-07-31T11:16:18;1.30;;;0.80;;
51800;SDS011;37855;53.204;6.568;2023-07-31T11:18:48;2.28;;;1.10;;
51800;SDS011;37855;53.204;6.568;2023-07-31T11:21:15;3.38;;;1.10;;
51800;SDS011;37855;53.204;6.568;2023-07-31T11:23:45;2.03;;;1.10;;
51800;SDS011;37855;53.204;6.568;2023-07-31T11:26:15;2.13;;;1.10;;
51800;SDS011;37855;53.204;6.568;2023-07-31T11:28:45;2.65;;;1.08;;
51800;SDS011;37855;53.204;6.568;2023-07-31T11:31:12;1.80;;;0.90;;
51800;SDS011;37855;53.204;6.568;2023-07-31T11:33:38;1.93;;;1.00;;
51800;SDS011;37855;53.204;6.568;2023-07-31T11:36:04;2.03;;;1.00;;
51800;SDS011;37855;53.204;6.568;2023-07-31T11:38:31;4.28;;;1.20;;
51800;SDS011;37855;53.204;6.568;2023-07-31T11:41:01;2.17;;;1.10;;
51800;SDS011;37855;53.204;6.568;2023-07-31T11:43:28;2.17;;;0.90;;
51800;SDS011;37855;53.204;6.568;2023-07-31T11:45:55;2.63;;;0.90;;
51800;SDS011;37855;53.204;6.568;2023-07-31T11:48:26;2.90;;;1.30;;
51800;SDS011;37855;53.204;6.568;2023-07-31T11:50:53;2.50;;;1.00;;
51800;SDS011;37855;53.204;6.568;2023-07-31T11:53:28;3.27;;;1.20;;
51800;SDS011;37855;53.204;6.568;2023-07-31T11:56:16;7.32;;;1.13;;
51800;SDS011;37855;53.204;6.568;2023-07-31T11:58:48;5.60;;;1.50;;
51800;SDS011;37855;53.204;6.568;2023-07-31T12:01:17;3.15;;;1.10;;
51800;SDS011;37855;53.204;6.568;2023-07-31T12:03:45;3.60;;;1.33;;
51800;SDS011;37855;53.204;6.568;2023-07-31T12:06:12;3.17;;;1.00;;
51800;SDS011;37855;53.204;6.568;2023-07-31T12:08:38;4.50;;;1.30;;
51800;SDS011;37855;53.204;6.568;2023-07-31T12:11:04;3.50;;;1.10;;
51800;SDS011;37855;53.204;6.568;2023-07-31T12:13:32;2.33;;;0.97;;
51800;SDS011;37855;53.204;6.568;2023-07-31T12:16:02;2.45;;;1.10;;
51800;SDS011;37855;53.204;6.568;2023-07-31T12:18:40;3.05;;;1.00;;
51800;SDS011;37855;53.204;6.568;2023-07-31T12:21:08;3.93;;;1.30;;
51800;SDS011;37855;53.204;6.568;2023-07-31T12:23:37;2.22;;;0.90;;
51800;SDS011;37855;53.204;6.568;2023-07-31T12:26:07;3.45;;;1.25;;
51800;SDS011;37855;53.204;6.568;2023-07-31T12:28:37;3.30;;;1.00;;
51800;SDS011;37855;53.204;6.568;2023-07-31T12:31:05;4.38;;;1.30;;
51800;SDS011;37855;53.204;6.568;2023-07-31T12:33:34;3.77;;;1.27;;
51800;SDS011;37855;53.204;6.568;2023-07-31T12:36:07;3.70;;;1.10;;
51800;SDS011;37855;53.204;6.568;2023-07-31T12:38:34;1.65;;;1.00;;
51800;SDS011;37855;53.204;6.568;2023-07-31T12:41:00;2.53;;;1.20;;
51800;SDS011;37855;53.204;6.568;2023-07-31T12:43:26;4.07;;;1.23;;
51800;SDS011;37855;53.204;6.568;2023-07-31T12:45:53;2.53;;;1.40;;
51800;SDS011;37855;53.204;6.568;2023-07-31T12:48:21;3.30;;;1.25;;
51800;SDS011;37855;53.204;6.568;2023-07-31T12:50:46;3.20;;;1.40;;
51800;SDS011;37855;53.204;6.568;2023-07-31T12:53:12;4.80;;;1.50;;
51800;SDS011;37855;53.204;6.568;2023-07-31T12:55:38;3.57;;;1.40;;
51800;SDS011;37855;53.204;6.568;2023-07-31T12:58:03;4.07;;;1.50;;
51800;SDS011;37855;53.204;6.568;2023-07-31T13:00:29;5.73;;;1.40;;
51800;SDS011;37855;53.204;6.568;2023-07-31T13:02:55;4.25;;;1.55;;
51800;SDS011;37855;53.204;6.568;2023-07-31T13:05:21;4.87;;;1.77;;
51800;SDS011;37855;53.204;6.568;2023-07-31T13:07:47;5.68;;;1.60;;
51800;SDS011;37855;53.204;6.568;2023-07-31T13:10:12;5.45;;;1.60;;
51800;SDS011;37855;53.204;6.568;2023-07-31T13:12:38;5.90;;;1.80;;
51800;SDS011;37855;53.204;6.568;2023-07-31T13:15:04;6.95;;;1.67;;
51800;SDS011;37855;53.204;6.568;2023-07-31T13:17:31;6.40;;;1.80;;
51800;SDS011;37855;53.204;6.568;2023-07-31T13:19:59;6.20;;;1.65;;
51800;SDS011;37855;53.204;6.568;2023-07-31T13:22:25;6.82;;;1.73;;
51800;SDS011;37855;53.204;6.568;2023-07-31T13:24:51;8.57;;;2.15;;
51800;SDS011;37855;53.204;6.568;2023-07-31T13:27:17;8.40;;;2.23;;
51800;SDS011;37855;53.204;6.568;2023-07-31T13:29:46;6.10;;;1.77;;
51800;SDS011;37855;53.204;6.568;2023-07-31T13:32:16;7.72;;;2.47;;
51800;SDS011;37855;53.204;6.568;2023-07-31T13:34:43;8.30;;;2.38;;
51800;SDS011;37855;53.204;6.568;2023-07-31T13:37:09;7.45;;;2.17;;
51800;SDS011;37855;53.204;6.568;2023-07-31T13:39:35;5.93;;;2.43;;
51800;SDS011;37855;53.204;6.568;2023-07-31T13:42:03;9.15;;;2.45;;
51800;SDS011;37855;53.204;6.568;2023-07-31T13:44:31;8.38;;;2.15;;
51800;SDS011;37855;53.204;6.568;2023-07-31T13:46:58;8.10;;;2.25;;
51800;SDS011;37855;53.204;6.568;2023-07-31T13:49:24;8.10;;;2.50;;
51800;SDS011;37855;53.204;6.568;2023-07-31T13:51:50;9.50;;;2.30;;
51800;SDS011;37855;53.204;6.568;2023-07-31T13:54:15;7.53;;;2.37;;
51800;SDS011;37855;53.204;6.568;2023-07-31T13:56:42;7.35;;;2.25;;
51800;SDS011;37855;53.204;6.568;2023-07-31T13:59:08;8.02;;;2.50;;
51800;SDS011;37855;53.204;6.568;2023-07-31T14:01:33;7.70;;;2.47;;
51800;SDS011;37855;53.204;6.568;2023-07-31T14:03:59;8.93;;;2.28;;
51800;SDS011;37855;53.204;6.568;2023-07-31T14:06:25;7.97;;;2.60;;
51800;SDS011;37855;53.204;6.568;2023-07-31T14:08:50;8.13;;;2.70;;
51800;SDS011;37855;53.204;6.568;2023-07-31T14:11:16;8.07;;;2.47;;
51800;SDS011;37855;53.204;6.568;2023-07-31T14:13:42;7.43;;;2.30;;
51800;SDS011;37855;53.204;6.568;2023-07-31T14:16:08;10.20;;;2.53;;
51800;SDS011;37855;53.204;6.568;2023-07-31T14:18:33;9.23;;;2.20;;
51800;SDS011;37855;53.204;6.568;2023-07-31T14:20:59;7.47;;;2.67;;
51800;SDS011;37855;53.204;6.568;2023-07-31T14:23:25;8.30;;;2.97;;
51800;SDS011;37855;53.204;6.568;2023-07-31T14:25:50;7.20;;;2.40;;
51800;SDS011;37855;53.204;6.568;2023-07-31T14:28:16;7.10;;;2.42;;
51800;SDS011;37855;53.204;6.568;2023-07-31T14:30:42;11.20;;;2.60;;
51800;SDS011;37855;53.204;6.568;2023-07-31T14:33:08;8.43;;;2.60;;
51800;SDS011;37855;53.204;6.568;2023-07-31T14:35:34;7.23;;;3.03;;
51800;SDS011;37855;53.204;6.568;2023-07-31T14:38:00;7.13;;;2.60;;
51800;SDS011;37855;53.204;6.568;2023-07-31T14:40:25;8.10;;;2.50;;
51800;SDS011;37855;53.204;6.568;2023-07-31T14:42:51;10.77;;;2.90;;
51800;SDS011;37855;53.204;6.568;2023-07-31T14:45:17;8.93;;;2.73;;
51800;SDS011;37855;53.204;6.568;2023-07-31T14:47:42;8.13;;;2.40;;
51800;SDS011;37855;53.204;6.568;2023-07-31T14:50:08;9.90;;;2.78;;
51800;SDS011;37855;53.204;6.568;2023-07-31T14:52:34;6.73;;;2.80;;
51800;SDS011;37855;53.204;6.568;2023-07-31T14:55:00;7.45;;;2.70;;
51800;SDS011;37855;53.204;6.568;2023-07-31T14:57:26;7.73;;;2.73;;
51800;SDS011;37855;53.204;6.568;2023-07-31T14:59:51;10.88;;;3.15;;